sensor_id;sensor_type;location;lat;lon;timestamp;temperature;humidity
71649;SHT31;70112;45.624;11.760;2023-07-08T00:00:47;21.80;68.21
71649;SHT31;70112;45.624;11.760;2023-07-08T00:03:13;21.72;68.22
71649;SHT31;70112;45.624;11.760;2023-07-08T00:05:40;21.66;68.13
71649;SHT31;70112;45.624;11.760;2023-07-08T00:08:13;21.65;68.18
71649;SHT31;70112;45.624;11.760;2023-07-08T00:10:39;21.65;68.07
71649;SHT31;70112;45.624;11.760;2023-07-08T00:13:05;21.64;68.25
71649;SHT31;70112;45.624;11.760;2023-07-08T00:15:31;21.62;68.42
71649;SHT31;70112;45.624;11.760;2023-07-08T00:18:01;21.61;68.60
71649;SHT31;70112;45.624;11.760;2023-07-08T00:20:33;21.60;68.74
71649;SHT31;70112;45.624;11.760;2023-07-08T00:23:03;21.57;68.68
71649;SHT31;70112;45.624;11.760;2023-07-08T00:25:30;21.56;68.85
71649;SHT31;70112;45.624;11.760;2023-07-08T00:27:57;21.50;69.11
71649;SHT31;70112;45.624;11.760;2023-07-08T00:30:26;21.44;69.27
71649;SHT31;70112;45.624;11.760;2023-07-08T00:32:54;21.37;69.20
71649;SHT31;70112;45.624;11.760;2023-07-08T00:35:26;21.26;69.26
71649;SHT31;70112;45.624;11.760;2023-07-08T00:38:02;21.17;69.47
71649;SHT31;70112;45.624;11.760;2023-07-08T00:40:37;21.09;69.77
71649;SHT31;70112;45.624;11.760;2023-07-08T00:43:04;21.01;69.97
71649;SHT31;70112;45.624;11.760;2023-07-08T00:48:28;20.93;70.33
71649;SHT31;70112;45.624;11.760;2023-07-08T00:50:55;20.88;70.51
71649;SHT31;70112;45.624;11.760;2023-07-08T00:56:00;20.77;70.98
71649;SHT31;70112;45.624;11.760;2023-07-08T00:58:45;20.72;71.18
71649;SHT31;70112;45.624;11.760;2023-07-08T01:01:29;20.72;71.21
71649;SHT31;70112;45.624;11.760;2023-07-08T01:04:03;20.76;71.05
71649;SHT31;70112;45.624;11.760;2023-07-08T01:06:34;20.77;70.84
71649;SHT31;70112;45.624;11.760;2023-07-08T01:09:05;20.76;70.84
71649;SHT31;70112;45.624;11.760;2023-07-08T01:11:33;20.76;71.12
71649;SHT31;70112;45.624;11.760;2023-07-08T01:14:02;20.73;71.31
71649;SHT31;70112;45.624;11.760;2023-07-08T01:16:35;20.68;71.23
71649;SHT31;70112;45.624;11.760;2023-07-08T01:19:01;20.64;71.23
71649;SHT31;70112;45.624;11.760;2023-07-08T01:23:55;20.54;71.49
71649;SHT31;70112;45.624;11.760;2023-07-08T01:26:24;20.50;71.49
71649;SHT31;70112;45.624;11.760;2023-07-08T01:28:52;20.41;71.69
71649;SHT31;70112;45.624;11.760;2023-07-08T01:31:19;20.34;71.92
71649;SHT31;70112;45.624;11.760;2023-07-08T01:33:47;20.32;71.98
71649;SHT31;70112;45.624;11.760;2023-07-08T01:36:13;20.35;71.88
71649;SHT31;70112;45.624;11.760;2023-07-08T01:38:39;20.39;71.81
71649;SHT31;70112;45.624;11.760;2023-07-08T01:41:05;20.38;71.95
71649;SHT31;70112;45.624;11.760;2023-07-08T01:43:38;20.38;72.03
71649;SHT31;70112;45.624;11.760;2023-07-08T01:46:03;20.35;72.15
71649;SHT31;70112;45.624;11.760;2023-07-08T01:48:38;20.35;72.17
71649;SHT31;70112;45.624;11.760;2023-07-08T01:51:07;20.37;72.15
71649;SHT31;70112;45.624;11.760;2023-07-08T01:53:34;20.38;72.20
71649;SHT31;70112;45.624;11.760;2023-07-08T01:56:05;20.39;72.21
71649;SHT31;70112;45.624;11.760;2023-07-08T01:58:32;20.38;72.29
71649;SHT31;70112;45.624;11.760;2023-07-08T02:00:58;20.38;72.29
71649;SHT31;70112;45.624;11.760;2023-07-08T02:03:25;20.38;72.38
71649;SHT31;70112;45.624;11.760;2023-07-08T02:05:51;20.36;72.57
71649;SHT31;70112;45.624;11.760;2023-07-08T02:08:17;20.32;72.65
71649;SHT31;70112;45.624;11.760;2023-07-08T02:10:43;20.26;72.64
71649;SHT31;70112;45.624;11.760;2023-07-08T02:13:14;20.18;72.64
71649;SHT31;70112;45.624;11.760;2023-07-08T02:15:40;20.13;72.88
71649;SHT31;70112;45.624;11.760;2023-07-08T02:18:05;20.10;73.09
71649;SHT31;70112;45.624;11.760;2023-07-08T02:20:31;20.09;73.14
71649;SHT31;70112;45.624;11.760;2023-07-08T02:22:56;20.06;73.25
71649;SHT31;70112;45.624;11.760;2023-07-08T02:25:22;19.98;73.32
71649;SHT31;70112;45.624;11.760;2023-07-08T02:27:48;19.93;73.47
71649;SHT31;70112;45.624;11.760;2023-07-08T02:30:13;19.92;73.62
71649;SHT31;70112;45.624;11.760;2023-07-08T02:32:39;19.87;73.87
71649;SHT31;70112;45.624;11.760;2023-07-08T02:35:05;19.79;74.04
71649;SHT31;70112;45.624;11.760;2023-07-08T02:37:33;19.76;74.17
71649;SHT31;70112;45.624;11.760;2023-07-08T02:39:59;19.74;74.28
71649;SHT31;70112;45.624;11.760;2023-07-08T02:42:25;19.70;74.42
71649;SHT31;70112;45.624;11.760;2023-07-08T02:44:51;19.71;74.33
71649;SHT31;70112;45.624;11.760;2023-07-08T02:47:16;19.76;74.30
71649;SHT31;70112;45.624;11.760;2023-07-08T02:49:42;19.79;74.37
71649;SHT31;70112;45.624;11.760;2023-07-08T02:52:08;19.84;74.33
71649;SHT31;70112;45.624;11.760;2023-07-08T02:54:33;19.89;74.32
71649;SHT31;70112;45.624;11.760;2023-07-08T02:56:59;19.92;74.33
71649;SHT31;70112;45.624;11.760;2023-07-08T02:59:25;19.93;74.43
71649;SHT31;70112;45.624;11.760;2023-07-08T03:01:52;19.94;74.56
71649;SHT31;70112;45.624;11.760;2023-07-08T03:04:18;19.94;74.60
71649;SHT31;70112;45.624;11.760;2023-07-08T03:06:47;19.92;74.59
71649;SHT31;70112;45.624;11.760;2023-07-08T03:09:15;19.92;74.53
71649;SHT31;70112;45.624;11.760;2023-07-08T03:11:41;19.95;74.49
71649;SHT31;70112;45.624;11.760;2023-07-08T03:14:06;19.96;74.43
71649;SHT31;70112;45.624;11.760;2023-07-08T03:16:32;19.94;74.40
71649;SHT31;70112;45.624;11.760;2023-07-08T03:18:58;19.90;74.45
71649;SHT31;70112;45.624;11.760;2023-07-08T03:21:23;19.91;74.39
71649;SHT31;70112;45.624;11.760;2023-07-08T03:23:50;19.93;74.42
71649;SHT31;70112;45.624;11.760;2023-07-08T03:26:23;19.92;74.46
71649;SHT31;70112;45.624;11.760;2023-07-08T03:28:51;19.90;74.59
71649;SHT31;70112;45.624;11.760;2023-07-08T03:31:16;19.89;74.53
71649;SHT31;70112;45.624;11.760;2023-07-08T03:33:42;19.89;74.63
71649;SHT31;70112;45.624;11.760;2023-07-08T03:36:12;19.86;74.70
71649;SHT31;70112;45.624;11.760;2023-07-08T03:38:54;19.89;74.72
71649;SHT31;70112;45.624;11.760;2023-07-08T03:41:22;19.93;74.71
71649;SHT31;70112;45.624;11.760;2023-07-08T03:43:48;19.96;74.80
71649;SHT31;70112;45.624;11.760;2023-07-08T03:46:15;19.94;74.79
71649;SHT31;70112;45.624;11.760;2023-07-08T03:48:43;19.98;74.69
71649;SHT31;70112;45.624;11.760;2023-07-08T03:51:10;19.99;74.61
71649;SHT31;70112;45.624;11.760;2023-07-08T03:53:48;20.02;74.50
71649;SHT31;70112;45.624;11.760;2023-07-08T03:56:13;20.09;74.45
71649;SHT31;70112;45.624;11.760;2023-07-08T03:58:39;20.14;74.32
71649;SHT31;70112;45.624;11.760;2023-07-08T04:01:05;20.18;74.14
71649;SHT31;70112;45.624;11.760;2023-07-08T04:03:39;20.24;73.99
71649;SHT31;70112;45.624;11.760;2023-07-08T04:06:05;20.26;73.98
71649;SHT31;70112;45.624;11.760;2023-07-08T04:08:31;20.29;73.94
71649;SHT31;70112;45.624;11.760;2023-07-08T04:10:56;20.31;73.89
71649;SHT31;70112;45.624;11.760;2023-07-08T04:13:21;20.37;73.75
71649;SHT31;70112;45.624;11.760;2023-07-08T04:15:50;20.43;73.64
71649;SHT31;70112;45.624;11.760;2023-07-08T04:18:20;20.46;73.74
71649;SHT31;70112;45.624;11.760;2023-07-08T04:20:45;20.52;73.71
71649;SHT31;70112;45.624;11.760;2023-07-08T04:23:17;20.58;73.53
71649;SHT31;70112;45.624;11.760;2023-07-08T04:25:46;20.67;73.45
71649;SHT31;70112;45.624;11.760;2023-07-08T04:28:14;20.76;73.26
71649;SHT31;70112;45.624;11.760;2023-07-08T04:30:41;20.84;73.16
71649;SHT31;70112;45.624;11.760;2023-07-08T04:33:08;20.91;73.19
71649;SHT31;70112;45.624;11.760;2023-07-08T04:35:35;20.98;73.29
71649;SHT31;70112;45.624;11.760;2023-07-08T04:38:04;21.03;73.42
71649;SHT31;70112;45.624;11.760;2023-07-08T04:40:35;21.07;73.52
71649;SHT31;70112;45.624;11.760;2023-07-08T04:43:05;21.10;73.51
71649;SHT31;70112;45.624;11.760;2023-07-08T04:45:31;21.19;73.36
71649;SHT31;70112;45.624;11.760;2023-07-08T04:47:57;21.26;73.13
71649;SHT31;70112;45.624;11.760;2023-07-08T04:50:23;21.33;72.93
71649;SHT31;70112;45.624;11.760;2023-07-08T04:52:48;21.40;72.76
71649;SHT31;70112;45.624;11.760;2023-07-08T04:55:15;21.45;72.60
71649;SHT31;70112;45.624;11.760;2023-07-08T04:57:40;21.52;72.44
71649;SHT31;70112;45.624;11.760;2023-07-08T05:00:07;21.59;72.28
71649;SHT31;70112;45.624;11.760;2023-07-08T05:02:38;21.67;72.08
71649;SHT31;70112;45.624;11.760;2023-07-08T05:05:04;21.73;71.80
71649;SHT31;70112;45.624;11.760;2023-07-08T05:07:30;21.80;71.57
71649;SHT31;70112;45.624;11.760;2023-07-08T05:09:55;21.85;71.52
71649;SHT31;70112;45.624;11.760;2023-07-08T05:12:21;21.93;71.36
71649;SHT31;70112;45.624;11.760;2023-07-08T05:14:46;22.00;71.32
71649;SHT31;70112;45.624;11.760;2023-07-08T05:17:12;22.07;71.21
71649;SHT31;70112;45.624;11.760;2023-07-08T05:19:38;22.14;71.04
71649;SHT31;70112;45.624;11.760;2023-07-08T05:22:05;22.21;70.95
71649;SHT31;70112;45.624;11.760;2023-07-08T05:24:31;22.28;70.84
71649;SHT31;70112;45.624;11.760;2023-07-08T05:26:56;22.34;70.66
71649;SHT31;70112;45.624;11.760;2023-07-08T05:29:23;22.38;70.47
71649;SHT31;70112;45.624;11.760;2023-07-08T05:31:49;22.44;70.34
71649;SHT31;70112;45.624;11.760;2023-07-08T05:34:14;22.51;70.20
71649;SHT31;70112;45.624;11.760;2023-07-08T05:36:40;22.62;70.22
71649;SHT31;70112;45.624;11.760;2023-07-08T05:39:06;22.73;70.18
71649;SHT31;70112;45.624;11.760;2023-07-08T05:41:32;22.82;69.93
71649;SHT31;70112;45.624;11.760;2023-07-08T05:43:58;22.92;69.78
71649;SHT31;70112;45.624;11.760;2023-07-08T05:46:23;23.03;69.38
71649;SHT31;70112;45.624;11.760;2023-07-08T05:48:49;23.19;69.19
71649;SHT31;70112;45.624;11.760;2023-07-08T05:51:16;23.34;68.68
71649;SHT31;70112;45.624;11.760;2023-07-08T05:53:42;23.52;68.47
71649;SHT31;70112;45.624;11.760;2023-07-08T05:56:08;23.70;68.11
71649;SHT31;70112;45.624;11.760;2023-07-08T05:58:33;23.92;67.77
71649;SHT31;70112;45.624;11.760;2023-07-08T06:00:59;24.19;67.36
71649;SHT31;70112;45.624;11.760;2023-07-08T06:03:24;25.03;66.68
71649;SHT31;70112;45.624;11.760;2023-07-08T06:05:51;26.53;64.96
71649;SHT31;70112;45.624;11.760;2023-07-08T06:08:17;27.54;62.82
71649;SHT31;70112;45.624;11.760;2023-07-08T06:10:43;27.85;61.27
71649;SHT31;70112;45.624;11.760;2023-07-08T06:13:10;27.87;60.16
71649;SHT31;70112;45.624;11.760;2023-07-08T06:15:36;28.17;59.25
71649;SHT31;70112;45.624;11.760;2023-07-08T06:18:02;28.60;58.15
71649;SHT31;70112;45.624;11.760;2023-07-08T06:20:28;29.21;57.13
71649;SHT31;70112;45.624;11.760;2023-07-08T06:22:54;29.70;56.22
71649;SHT31;70112;45.624;11.760;2023-07-08T06:25:20;29.97;54.95
71649;SHT31;70112;45.624;11.760;2023-07-08T06:27:46;30.60;54.28
71649;SHT31;70112;45.624;11.760;2023-07-08T06:30:11;31.32;52.70
71649;SHT31;70112;45.624;11.760;2023-07-08T06:32:37;32.19;50.15
71649;SHT31;70112;45.624;11.760;2023-07-08T06:35:02;32.62;47.38
71649;SHT31;70112;45.624;11.760;2023-07-08T06:37:28;33.10;47.01
71649;SHT31;70112;45.624;11.760;2023-07-08T06:39:54;33.53;46.48
71649;SHT31;70112;45.624;11.760;2023-07-08T06:42:19;33.93;45.90
71649;SHT31;70112;45.624;11.760;2023-07-08T06:44:45;34.38;45.43
71649;SHT31;70112;45.624;11.760;2023-07-08T06:47:18;34.71;45.14
71649;SHT31;70112;45.624;11.760;2023-07-08T06:49:46;34.98;44.57
71649;SHT31;70112;45.624;11.760;2023-07-08T06:52:12;35.35;43.83
71649;SHT31;70112;45.624;11.760;2023-07-08T06:54:38;35.74;43.24
71649;SHT31;70112;45.624;11.760;2023-07-08T06:57:04;36.14;42.53
71649;SHT31;70112;45.624;11.760;2023-07-08T06:59:30;36.60;41.59
71649;SHT31;70112;45.624;11.760;2023-07-08T07:01:55;37.03;40.95
71649;SHT31;70112;45.624;11.760;2023-07-08T07:04:21;37.44;40.04
71649;SHT31;70112;45.624;11.760;2023-07-08T07:06:46;37.86;39.03
71649;SHT31;70112;45.624;11.760;2023-07-08T07:09:12;38.41;38.18
71649;SHT31;70112;45.624;11.760;2023-07-08T07:11:37;38.76;37.46
71649;SHT31;70112;45.624;11.760;2023-07-08T07:14:03;39.10;36.90
71649;SHT31;70112;45.624;11.760;2023-07-08T07:16:29;39.35;36.16
71649;SHT31;70112;45.624;11.760;2023-07-08T07:18:54;39.43;35.71
71649;SHT31;70112;45.624;11.760;2023-07-08T07:21:20;39.55;35.71
71649;SHT31;70112;45.624;11.760;2023-07-08T07:23:45;39.86;35.35
71649;SHT31;70112;45.624;11.760;2023-07-08T07:26:11;40.09;34.09
71649;SHT31;70112;45.624;11.760;2023-07-08T07:28:37;39.87;33.14
71649;SHT31;70112;45.624;11.760;2023-07-08T07:31:02;38.81;34.36
71649;SHT31;70112;45.624;11.760;2023-07-08T07:33:30;37.85;35.50
71649;SHT31;70112;45.624;11.760;2023-07-08T07:35:56;36.84;36.48
71649;SHT31;70112;45.624;11.760;2023-07-08T07:38:23;35.88;37.16
71649;SHT31;70112;45.624;11.760;2023-07-08T07:40:53;34.84;38.07
71649;SHT31;70112;45.624;11.760;2023-07-08T07:43:20;33.99;39.13
71649;SHT31;70112;45.624;11.760;2023-07-08T07:45:50;33.45;40.09
71649;SHT31;70112;45.624;11.760;2023-07-08T07:48:17;33.02;40.89
71649;SHT31;70112;45.624;11.760;2023-07-08T07:50:45;32.54;41.57
71649;SHT31;70112;45.624;11.760;2023-07-08T07:53:12;32.10;42.47
71649;SHT31;70112;45.624;11.760;2023-07-08T07:55:38;31.76;43.31
71649;SHT31;70112;45.624;11.760;2023-07-08T07:58:03;31.50;43.90
71649;SHT31;70112;45.624;11.760;2023-07-08T08:00:30;31.28;44.55
71649;SHT31;70112;45.624;11.760;2023-07-08T08:02:55;31.02;44.65
71649;SHT31;70112;45.624;11.760;2023-07-08T08:05:21;30.79;44.50
71649;SHT31;70112;45.624;11.760;2023-07-08T08:07:47;30.60;44.79
71649;SHT31;70112;45.624;11.760;2023-07-08T08:10:13;30.47;45.17
71649;SHT31;70112;45.624;11.760;2023-07-08T08:12:39;30.44;45.35
71649;SHT31;70112;45.624;11.760;2023-07-08T08:15:05;30.67;45.17
71649;SHT31;70112;45.624;11.760;2023-07-08T08:17:31;30.82;45.13
71649;SHT31;70112;45.624;11.760;2023-07-08T08:19:57;30.78;45.08
71649;SHT31;70112;45.624;11.760;2023-07-08T08:22:22;30.65;45.57
71649;SHT31;70112;45.624;11.760;2023-07-08T08:24:48;30.60;45.82
71649;SHT31;70112;45.624;11.760;2023-07-08T08:27:14;30.64;45.14
71649;SHT31;70112;45.624;11.760;2023-07-08T08:29:40;30.53;45.17
71649;SHT31;70112;45.624;11.760;2023-07-08T08:32:05;30.34;45.32
71649;SHT31;70112;45.624;11.760;2023-07-08T08:34:31;30.15;45.47
71649;SHT31;70112;45.624;11.760;2023-07-08T08:36:57;29.98;46.88
71649;SHT31;70112;45.624;11.760;2023-07-08T08:39:23;29.81;48.10
71649;SHT31;70112;45.624;11.760;2023-07-08T08:41:51;29.73;48.75
71649;SHT31;70112;45.624;11.760;2023-07-08T08:44:24;29.71;49.03
71649;SHT31;70112;45.624;11.760;2023-07-08T08:46:58;29.74;48.96
71649;SHT31;70112;45.624;11.760;2023-07-08T08:49:35;29.75;49.16
71649;SHT31;70112;45.624;11.760;2023-07-08T08:52:09;30.15;49.25
71649;SHT31;70112;45.624;11.760;2023-07-08T08:54:34;30.47;48.91
71649;SHT31;70112;45.624;11.760;2023-07-08T09:00:44;31.39;48.00
71649;SHT31;70112;45.624;11.760;2023-07-08T09:06:19;31.67;46.96
71649;SHT31;70112;45.624;11.760;2023-07-08T09:08:49;31.74;46.39
71649;SHT31;70112;45.624;11.760;2023-07-08T09:11:19;31.72;45.24
71649;SHT31;70112;45.624;11.760;2023-07-08T09:14:24;31.74;45.56
71649;SHT31;70112;45.624;11.760;2023-07-08T09:16:55;31.81;44.90
71649;SHT31;70112;45.624;11.760;2023-07-08T09:19:37;31.87;44.78
71649;SHT31;70112;45.624;11.760;2023-07-08T09:22:16;32.26;44.56
71649;SHT31;70112;45.624;11.760;2023-07-08T09:24:55;32.84;43.87
71649;SHT31;70112;45.624;11.760;2023-07-08T09:27:27;33.13;43.30
71649;SHT31;70112;45.624;11.760;2023-07-08T09:29:52;34.03;42.52
71649;SHT31;70112;45.624;11.760;2023-07-08T09:32:19;35.42;41.37
71649;SHT31;70112;45.624;11.760;2023-07-08T09:34:50;37.03;39.62
71649;SHT31;70112;45.624;11.760;2023-07-08T09:37:31;38.80;37.38
71649;SHT31;70112;45.624;11.760;2023-07-08T09:40:03;39.88;36.25
71649;SHT31;70112;45.624;11.760;2023-07-08T09:42:46;41.62;34.74
71649;SHT31;70112;45.624;11.760;2023-07-08T09:45:19;42.49;33.88
71649;SHT31;70112;45.624;11.760;2023-07-08T09:47:51;43.00;33.58
71649;SHT31;70112;45.624;11.760;2023-07-08T09:50:24;44.13;32.21
71649;SHT31;70112;45.624;11.760;2023-07-08T09:52:57;45.39;29.95
71649;SHT31;70112;45.624;11.760;2023-07-08T09:55:33;46.62;28.77
71649;SHT31;70112;45.624;11.760;2023-07-08T09:57:59;47.86;26.72
71649;SHT31;70112;45.624;11.760;2023-07-08T10:00:30;48.63;25.53
71649;SHT31;70112;45.624;11.760;2023-07-08T10:03:58;49.83;24.66
71649;SHT31;70112;45.624;11.760;2023-07-08T10:09:37;51.36;22.67
71649;SHT31;70112;45.624;11.760;2023-07-08T10:13:14;51.75;22.02
71649;SHT31;70112;45.624;11.760;2023-07-08T10:36:18;55.27;19.04
71649;SHT31;70112;45.624;11.760;2023-07-08T10:54:57;54.74;18.44
71649;SHT31;70112;45.624;11.760;2023-07-08T11:01:29;52.01;19.31
71649;SHT31;70112;45.624;11.760;2023-07-08T11:07:30;46.98;22.72
71649;SHT31;70112;45.624;11.760;2023-07-08T11:10:00;45.33;23.72
71649;SHT31;70112;45.624;11.760;2023-07-08T11:13:06;43.64;24.35
71649;SHT31;70112;45.624;11.760;2023-07-08T11:18:20;40.88;26.66
71649;SHT31;70112;45.624;11.760;2023-07-08T11:28:32;37.17;31.82
71649;SHT31;70112;45.624;11.760;2023-07-08T11:30:57;36.49;32.47
71649;SHT31;70112;45.624;11.760;2023-07-08T11:33:26;35.94;33.43
71649;SHT31;70112;45.624;11.760;2023-07-08T11:35:53;35.51;34.61
71649;SHT31;70112;45.624;11.760;2023-07-08T11:38:23;35.09;35.35
71649;SHT31;70112;45.624;11.760;2023-07-08T11:43:21;34.34;36.91
71649;SHT31;70112;45.624;11.760;2023-07-08T11:45:53;34.04;37.52
71649;SHT31;70112;45.624;11.760;2023-07-08T11:48:30;33.73;37.93
71649;SHT31;70112;45.624;11.760;2023-07-08T11:51:06;33.38;37.91
71649;SHT31;70112;45.624;11.760;2023-07-08T11:53:35;33.18;38.86
71649;SHT31;70112;45.624;11.760;2023-07-08T12:03:39;32.54;39.92
71649;SHT31;70112;45.624;11.760;2023-07-08T12:08:55;32.24;40.02
71649;SHT31;70112;45.624;11.760;2023-07-08T12:11:33;32.09;40.89
71649;SHT31;70112;45.624;11.760;2023-07-08T12:14:01;32.01;41.51
71649;SHT31;70112;45.624;11.760;2023-07-08T12:16:29;31.95;41.29
71649;SHT31;70112;45.624;11.760;2023-07-08T12:18:57;31.90;41.58
71649;SHT31;70112;45.624;11.760;2023-07-08T12:21:25;31.85;41.67
71649;SHT31;70112;45.624;11.760;2023-07-08T12:23:53;31.82;41.73
71649;SHT31;70112;45.624;11.760;2023-07-08T12:26:19;31.80;42.33
71649;SHT31;70112;45.624;11.760;2023-07-08T12:28:48;31.77;42.35
71649;SHT31;70112;45.624;11.760;2023-07-08T12:31:20;31.74;42.09
71649;SHT31;70112;45.624;11.760;2023-07-08T12:33:48;31.69;41.28
71649;SHT31;70112;45.624;11.760;2023-07-08T12:36:21;31.64;41.80
71649;SHT31;70112;45.624;11.760;2023-07-08T12:38:52;31.54;41.91
71649;SHT31;70112;45.624;11.760;2023-07-08T12:41:22;31.50;42.57
71649;SHT31;70112;45.624;11.760;2023-07-08T12:43:58;31.48;42.88
71649;SHT31;70112;45.624;11.760;2023-07-08T12:46:26;31.43;42.17
71649;SHT31;70112;45.624;11.760;2023-07-08T12:48:52;31.38;42.19
71649;SHT31;70112;45.624;11.760;2023-07-08T12:51:21;31.34;42.36
71649;SHT31;70112;45.624;11.760;2023-07-08T12:53:51;31.31;42.40
71649;SHT31;70112;45.624;11.760;2023-07-08T12:56:18;31.27;42.33
71649;SHT31;70112;45.624;11.760;2023-07-08T12:58:53;31.25;42.87
71649;SHT31;70112;45.624;11.760;2023-07-08T13:01:23;31.22;42.67
71649;SHT31;70112;45.624;11.760;2023-07-08T13:03:55;31.23;42.87
71649;SHT31;70112;45.624;11.760;2023-07-08T13:06:24;31.21;42.74
71649;SHT31;70112;45.624;11.760;2023-07-08T13:08:57;31.20;42.70
71649;SHT31;70112;45.624;11.760;2023-07-08T13:11:36;31.23;43.24
71649;SHT31;70112;45.624;11.760;2023-07-08T13:14:04;31.20;42.66
71649;SHT31;70112;45.624;11.760;2023-07-08T13:16:32;31.17;43.10
71649;SHT31;70112;45.624;11.760;2023-07-08T13:18:59;31.16;42.96
71649;SHT31;70112;45.624;11.760;2023-07-08T13:21:25;31.14;42.67
71649;SHT31;70112;45.624;11.760;2023-07-08T13:23:52;31.14;43.24
71649;SHT31;70112;45.624;11.760;2023-07-08T13:26:23;31.14;43.04
71649;SHT31;70112;45.624;11.760;2023-07-08T13:28:59;31.14;43.05
71649;SHT31;70112;45.624;11.760;2023-07-08T13:31:31;31.14;43.11
71649;SHT31;70112;45.624;11.760;2023-07-08T13:34:07;31.13;43.14
71649;SHT31;70112;45.624;11.760;2023-07-08T13:36:39;31.11;43.20
71649;SHT31;70112;45.624;11.760;2023-07-08T13:39:09;31.10;42.57
71649;SHT31;70112;45.624;11.760;2023-07-08T13:41:44;31.09;42.92
71649;SHT31;70112;45.624;11.760;2023-07-08T13:44:11;31.08;43.55
71649;SHT31;70112;45.624;11.760;2023-07-08T13:46:38;31.10;43.74
71649;SHT31;70112;45.624;11.760;2023-07-08T13:49:25;31.11;42.71
71649;SHT31;70112;45.624;11.760;2023-07-08T13:52:37;31.14;43.04
71649;SHT31;70112;45.624;11.760;2023-07-08T13:54:53;31.16;42.68
71649;SHT31;70112;45.624;11.760;2023-07-08T13:57:36;31.18;43.11
71649;SHT31;70112;45.624;11.760;2023-07-08T14:00:05;31.19;43.45
71649;SHT31;70112;45.624;11.760;2023-07-08T14:02:32;31.19;43.20
71649;SHT31;70112;45.624;11.760;2023-07-08T14:05:01;31.17;42.41
71649;SHT31;70112;45.624;11.760;2023-07-08T14:07:34;31.16;42.38
71649;SHT31;70112;45.624;11.760;2023-07-08T14:09:59;31.14;43.16
71649;SHT31;70112;45.624;11.760;2023-07-08T14:12:25;31.10;43.40
71649;SHT31;70112;45.624;11.760;2023-07-08T14:14:50;31.10;43.37
71649;SHT31;70112;45.624;11.760;2023-07-08T14:17:23;31.10;42.67
71649;SHT31;70112;45.624;11.760;2023-07-08T14:19:52;31.10;43.06
71649;SHT31;70112;45.624;11.760;2023-07-08T14:22:22;31.11;42.57
71649;SHT31;70112;45.624;11.760;2023-07-08T14:25:07;31.13;42.27
71649;SHT31;70112;45.624;11.760;2023-07-08T14:27:35;31.13;42.63
71649;SHT31;70112;45.624;11.760;2023-07-08T14:30:00;31.13;42.70
71649;SHT31;70112;45.624;11.760;2023-07-08T14:32:26;31.10;42.74
71649;SHT31;70112;45.624;11.760;2023-07-08T14:35:28;31.06;42.92
71649;SHT31;70112;45.624;11.760;2023-07-08T14:37:54;30.99;42.96
71649;SHT31;70112;45.624;11.760;2023-07-08T14:43:05;30.92;42.82
71649;SHT31;70112;45.624;11.760;2023-07-08T14:45:39;30.93;43.00
71649;SHT31;70112;45.624;11.760;2023-07-08T14:48:17;30.96;43.21
71649;SHT31;70112;45.624;11.760;2023-07-08T14:50:44;30.99;42.42
71649;SHT31;70112;45.624;11.760;2023-07-08T14:53:10;30.98;41.95
71649;SHT31;70112;45.624;11.760;2023-07-08T14:55:35;30.95;42.29
71649;SHT31;70112;45.624;11.760;2023-07-08T14:58:02;30.91;42.85
71649;SHT31;70112;45.624;11.760;2023-07-08T15:00:29;30.85;43.52
71649;SHT31;70112;45.624;11.760;2023-07-08T15:02:55;30.80;43.05
71649;SHT31;70112;45.624;11.760;2023-07-08T15:05:22;30.78;43.41
71649;SHT31;70112;45.624;11.760;2023-07-08T15:07:52;30.77;43.51
71649;SHT31;70112;45.624;11.760;2023-07-08T15:10:23;30.81;43.39
71649;SHT31;70112;45.624;11.760;2023-07-08T15:12:51;30.83;43.09
71649;SHT31;70112;45.624;11.760;2023-07-08T15:15:20;30.85;43.43
71649;SHT31;70112;45.624;11.760;2023-07-08T15:17:51;30.85;43.15
71649;SHT31;70112;45.624;11.760;2023-07-08T15:20:17;30.85;43.05
71649;SHT31;70112;45.624;11.760;2023-07-08T15:22:44;30.84;42.97
71649;SHT31;70112;45.624;11.760;2023-07-08T15:25:13;30.84;42.99
71649;SHT31;70112;45.624;11.760;2023-07-08T15:27:40;30.86;42.70
71649;SHT31;70112;45.624;11.760;2023-07-08T15:30:17;30.89;42.62
71649;SHT31;70112;45.624;11.760;2023-07-08T15:32:48;30.89;42.86
71649;SHT31;70112;45.624;11.760;2023-07-08T15:35:15;30.87;42.91
71649;SHT31;70112;45.624;11.760;2023-07-08T15:37:44;30.85;42.86
71649;SHT31;70112;45.624;11.760;2023-07-08T15:40:14;30.82;43.25
71649;SHT31;70112;45.624;11.760;2023-07-08T15:42:47;30.81;43.25
71649;SHT31;70112;45.624;11.760;2023-07-08T15:45:19;30.79;43.21
71649;SHT31;70112;45.624;11.760;2023-07-08T15:47:49;30.77;43.19
71649;SHT31;70112;45.624;11.760;2023-07-08T15:50:16;30.73;43.68
71649;SHT31;70112;45.624;11.760;2023-07-08T15:52:45;30.68;44.02
71649;SHT31;70112;45.624;11.760;2023-07-08T15:55:12;30.64;44.34
71649;SHT31;70112;45.624;11.760;2023-07-08T15:57:46;30.60;44.82
71649;SHT31;70112;45.624;11.760;2023-07-08T16:00:18;30.58;43.73
71649;SHT31;70112;45.624;11.760;2023-07-08T16:02:48;30.58;43.50
71649;SHT31;70112;45.624;11.760;2023-07-08T16:05:18;30.60;43.26
71649;SHT31;70112;45.624;11.760;2023-07-08T16:07:45;30.59;43.11
71649;SHT31;70112;45.624;11.760;2023-07-08T16:10:13;30.60;43.25
71649;SHT31;70112;45.624;11.760;2023-07-08T16:12:39;30.58;43.13
71649;SHT31;70112;45.624;11.760;2023-07-08T16:15:12;30.57;43.48
71649;SHT31;70112;45.624;11.760;2023-07-08T16:17:49;30.54;44.17
71649;SHT31;70112;45.624;11.760;2023-07-08T16:20:16;30.51;44.04
71649;SHT31;70112;45.624;11.760;2023-07-08T16:22:44;30.48;44.05
71649;SHT31;70112;45.624;11.760;2023-07-08T16:25:12;30.45;43.96
71649;SHT31;70112;45.624;11.760;2023-07-08T16:27:43;30.42;43.87
71649;SHT31;70112;45.624;11.760;2023-07-08T16:30:13;30.38;44.24
71649;SHT31;70112;45.624;11.760;2023-07-08T16:32:41;30.36;44.32
71649;SHT31;70112;45.624;11.760;2023-07-08T16:35:10;30.33;44.34
71649;SHT31;70112;45.624;11.760;2023-07-08T16:37:38;30.31;44.79
71649;SHT31;70112;45.624;11.760;2023-07-08T16:40:05;30.27;45.47
71649;SHT31;70112;45.624;11.760;2023-07-08T16:42:39;30.24;45.56
71649;SHT31;70112;45.624;11.760;2023-07-08T16:45:09;30.21;46.05
71649;SHT31;70112;45.624;11.760;2023-07-08T16:47:37;30.17;46.19
71649;SHT31;70112;45.624;11.760;2023-07-08T16:50:03;30.15;46.75
71649;SHT31;70112;45.624;11.760;2023-07-08T16:52:29;30.11;46.68
71649;SHT31;70112;45.624;11.760;2023-07-08T16:54:56;30.09;46.97